Weather at Cork Airport

Public forecast

Using degrees Celsius for public forecast. Weather courtesy of forecast.io.

Current aviation weather report (METAR) for Cork Airport

2022/11/30 17:00 (retrieved 32 minutes ago)

EICK 301700Z 16008KT 4000 -RADZ BKN004 BKN009 10/10 Q1023 TEMPO BKN007

Aviation forecast (TAF) for Cork Airport

2022/11/30 13:45 Ammendment (retrieved 4 hours ago)

TAF AMD EICK 301337Z 3013/0112 17012KT 3000 -RADZ BKN004 TEMPO 3013/0101 5000 BKN007 PROB40 TEMPO 3013/3015 1200 BKN002 BECMG 0101/0103 9999 NSW FEW005 BKN017 PROB30 TEMPO 0103/0107 3000 BR